Time;durP1;ratioP1;P1;durP2;ratioP2;P2;SDS_P1;SDS_P2;PMS_P1;PMS_P2;Temp;Humidity;BMP_temperature;BMP_pressure;BME280_temperature;BME280_humidity;BME280_pressure;Samples;Min_cycle;Max_cycle;Signal;HPM_P1;HPM_P2
2021/03/19 05:33:28;;;;;;;8.65;7.22;;;5.30;50.70;;;;;;6219404;22;20244;-92
2021/03/19 05:35:55;;;;;;;8.52;7.82;;;5.90;50.40;;;;;;6193345;23;20237;-91
2021/03/19 05:38:22;;;;;;;8.10;6.90;;;4.90;49.20;;;;;;6193330;23;20158;-91
2021/03/19 05:40:55;;;;;;;8.15;7.45;;;5.90;50.60;;;;;;6193886;23;20173;-94
2021/03/19 05:43:21;;;;;;;10.65;8.80;;;4.80;49.00;;;;;;6195134;23;20221;-94
2021/03/19 05:45:57;;;;;;;8.30;7.50;;;5.20;49.40;;;;;;6195980;23;20146;-95
2021/03/19 05:48:48;;;;;;;8.00;7.15;;;5.20;49.10;;;;;;6204345;23;20170;-94
2021/03/19 05:51:55;;;;;;;10.05;7.85;;;5.20;50.20;;;;;;6201718;23;20150;-93
2021/03/19 05:54:23;;;;;;;7.50;6.75;;;4.90;50.70;;;;;;6114071;23;20163;-92
2021/03/19 05:57:09;;;;;;;8.75;7.03;;;4.80;51.00;;;;;;6194010;23;20142;-92
2021/03/19 05:59:55;;;;;;;7.70;7.00;;;5.30;51.20;;;;;;6197059;23;20500;-94
2021/03/19 06:02:23;;;;;;;8.73;7.10;;;5.50;50.40;;;;;;6202293;23;20155;-94
2021/03/19 06:05:13;;;;;;;8.57;7.82;;;5.30;50.70;;;;;;6201591;23;20150;-94
2021/03/19 06:07:47;;;;;;;8.00;6.93;;;5.50;50.70;;;;;;6200500;23;20150;-93
2021/03/19 06:10:22;;;;;;;8.98;6.97;;;5.60;50.40;;;;;;6198527;23;20257;-94
2021/03/19 06:12:50;;;;;;;8.32;7.35;;;5.70;49.90;;;;;;6194409;23;20146;-92
2021/03/19 06:15:50;;;;;;;12.15;8.20;;;5.70;49.50;;;;;;6193876;23;20150;-94
2021/03/19 06:18:43;;;;;;;10.00;8.70;;;5.70;49.10;;;;;;6198831;23;20151;-90
2021/03/19 06:24:27;;;;;;;9.13;8.32;;;5.70;49.20;;;;;;6100352;23;20168;-93
2021/03/19 06:30:41;;;;;;;9.27;8.40;;;5.80;49.20;;;;;;6227126;23;20565;-93
2021/03/19 06:33:34;;;;;;;10.20;8.30;;;6.10;48.50;;;;;;6191177;23;20199;-93
2021/03/19 06:36:08;;;;;;;12.00;8.73;;;6.00;48.60;;;;;;6189172;23;20163;-92
2021/03/19 06:38:49;;;;;;;9.75;8.52;;;6.10;48.10;;;;;;6190681;23;20151;-93
2021/03/19 06:41:25;;;;;;;8.77;7.97;;;6.10;48.30;;;;;;6191263;23;20151;-93
2021/03/19 06:43:52;;;;;;;8.02;7.00;;;5.80;47.20;;;;;;6193077;23;20151;-91
2021/03/19 06:49:57;;;;;;;7.78;6.88;;;6.30;48.00;;;;;;6138630;23;20286;-92
2021/03/19 06:52:27;;;;;;;9.85;8.95;;;7.00;48.30;;;;;;6105233;23;20614;-92
2021/03/19 06:55:29;;;;;;;8.80;7.40;;;6.30;47.60;;;;;;6105581;23;20164;-93
2021/03/19 06:57:56;;;;;;;8.93;8.02;;;6.70;47.50;;;;;;6104447;23;20159;-93
2021/03/19 07:00:59;;;;;;;9.57;8.13;;;6.20;47.50;;;;;;6104907;23;20970;-92
2021/03/19 07:03:52;;;;;;;7.45;6.63;;;6.30;47.90;;;;;;6105900;23;20207;-92
2021/03/19 07:07:13;;;;;;;8.23;7.43;;;6.60;48.00;;;;;;6104443;23;20161;-94
2021/03/19 07:23:41;;;;;;;9.18;8.27;;;6.70;48.00;;;;;;6200895;23;20193;-95
2021/03/19 07:32:38;;;;;;;9.57;8.68;;;7.50;47.10;;;;;;6206868;23;20229;-91
2021/03/19 07:35:12;;;;;;;8.83;7.90;;;7.60;45.60;;;;;;6193657;23;20484;-93
2021/03/19 07:37:51;;;;;;;12.68;9.88;;;7.70;46.10;;;;;;6193429;23;20157;-91
2021/03/19 07:40:36;;;;;;;10.25;9.35;;;7.40;45.60;;;;;;6193470;23;20154;-91
2021/03/19 07:43:27;;;;;;;9.95;9.05;;;7.50;46.10;;;;;;6193687;23;20163;-91
2021/03/19 07:46:25;;;;;;;9.65;8.75;;;7.70;45.50;;;;;;6194182;23;20177;-90
2021/03/19 07:52:09;;;;;;;10.70;9.60;;;8.20;45.00;;;;;;6220158;23;20640;-91
2021/03/19 07:54:48;;;;;;;11.23;10.23;;;8.10;44.10;;;;;;6191568;23;20151;-90
2021/03/19 07:57:46;;;;;;;11.77;10.57;;;8.30;43.10;;;;;;6190827;23;20142;-91
2021/03/19 08:00:38;;;;;;;10.43;9.48;;;8.60;43.30;;;;;;6217800;23;20162;-91
2021/03/19 08:03:32;;;;;;;9.38;8.57;;;8.60;43.00;;;;;;6193835;23;20156;-90
2021/03/19 08:06:02;;;;;;;9.82;8.82;;;8.70;42.70;;;;;;6195890;23;20212;-92
2021/03/19 08:11:46;;;;;;;9.82;8.90;;;8.20;42.70;;;;;;6221156;23;20134;-91
2021/03/19 08:15:05;;;;;;;10.65;9.57;;;8.80;43.40;;;;;;6193649;23;20146;-91
2021/03/19 08:17:36;;;;;;;18.80;10.32;;;8.30;42.50;;;;;;6157844;23;20161;-90
2021/03/19 08:20:14;;;;;;;10.50;9.43;;;8.70;42.20;;;;;;6194984;23;20146;-92
2021/03/19 08:22:58;;;;;;;10.32;9.35;;;8.50;42.60;;;;;;6194062;23;20150;-89
2021/03/19 08:25:31;;;;;;;12.93;11.32;;;8.60;42.20;;;;;;6193238;23;20193;-91
2021/03/19 08:28:37;;;;;;;15.93;12.75;;;8.60;42.60;;;;;;6194938;23;20142;-91
2021/03/19 08:31:51;;;;;;;12.18;10.98;;;8.50;42.40;;;;;;6194702;23;20616;-90
2021/03/19 08:34:23;;;;;;;13.77;12.32;;;8.60;42.80;;;;;;6192243;23;20265;-91
2021/03/19 08:36:56;;;;;;;9.68;8.68;;;8.20;43.00;;;;;;6217276;23;20147;-91
2021/03/19 08:39:51;;;;;;;9.80;8.85;;;8.40;44.90;;;;;;6191801;23;20178;-91
2021/03/19 08:42:38;;;;;;;10.30;9.30;;;7.90;44.30;;;;;;6191314;23;20206;-91
2021/03/19 08:45:06;;;;;;;10.10;8.35;;;8.30;43.80;;;;;;6191872;23;20229;-91
2021/03/19 08:47:41;;;;;;;8.45;7.25;;;8.30;43.30;;;;;;6192160;23;20195;-90
2021/03/19 08:50:16;;;;;;;10.38;8.48;;;8.60;42.40;;;;;;6192886;23;20177;-93
2021/03/19 08:53:03;;;;;;;8.02;7.25;;;8.70;42.70;;;;;;6222073;23;20168;-93
2021/03/19 08:55:32;;;;;;;8.10;7.32;;;8.70;41.80;;;;;;6219955;23;20150;-93
2021/03/19 08:58:28;;;;;;;8.10;7.30;;;8.70;41.60;;;;;;6192373;23;20142;-92
2021/03/19 09:01:06;;;;;;;8.02;7.22;;;8.90;42.70;;;;;;6217674;23;20154;-93
2021/03/19 09:03:53;;;;;;;8.77;7.97;;;9.30;43.50;;;;;;6193103;23;20480;-93
2021/03/19 09:06:22;;;;;;;8.48;7.78;;;9.10;42.70;;;;;;6195863;23;20145;-95
2021/03/19 09:08:51;;;;;;;9.85;8.98;;;8.90;41.00;;;;;;6196860;23;20175;-95
2021/03/19 09:11:52;;;;;;;9.55;8.05;;;9.10;41.90;;;;;;6223113;23;20147;-93
2021/03/19 09:14:32;;;;;;;9.40;8.50;;;8.80;42.30;;;;;;6219564;23;20138;-93
2021/03/19 09:16:58;;;;;;;8.80;8.00;;;8.70;42.10;;;;;;6220300;23;20150;-94
2021/03/19 09:19:40;;;;;;;9.20;8.20;;;9.00;43.30;;;;;;6199859;23;20174;-93
2021/03/19 09:25:52;;;;;;;10.20;9.07;;;9.20;43.40;;;;;;6222496;23;20472;-93
2021/03/19 09:28:55;;;;;;;9.63;8.73;;;8.80;43.30;;;;;;6192970;23;20578;-92
2021/03/19 09:31:24;;;;;;;8.57;7.78;;;8.80;43.50;;;;;;6192865;23;20200;-92
2021/03/19 09:43:56;;;;;;;7.22;6.53;;;9.20;41.10;;;;;;6220045;23;20138;-93
2021/03/19 09:46:53;;;;;;;6.97;6.33;;;9.70;40.10;;;;;;6193318;23;20155;-94
2021/03/19 09:49:28;;;;;;;7.78;7.07;;;9.20;39.00;;;;;;6193670;23;20425;-94
2021/03/19 09:55:46;;;;;;;7.30;6.70;;;9.20;39.60;;;;;;6220689;23;20242;-93
2021/03/19 09:58:18;;;;;;;7.55;6.95;;;9.40;40.20;;;;;;6194828;23;20237;-94
2021/03/19 10:01:02;;;;;;;7.47;6.70;;;9.20;39.40;;;;;;6193860;23;20204;-92
2021/03/19 10:04:13;;;;;;;7.32;6.82;;;9.10;40.60;;;;;;6193235;23;20146;-92
2021/03/19 10:06:46;;;;;;;7.60;6.80;;;8.90;40.60;;;;;;6192244;23;20228;-95
2021/03/19 10:09:16;;;;;;;8.00;7.20;;;8.70;40.60;;;;;;6195451;23;20555;-93
2021/03/19 10:15:18;;;;;;;7.30;6.70;;;8.20;43.40;;;;;;6222952;23;20134;-92
2021/03/19 10:21:44;;;;;;;8.25;7.55;;;8.30;44.00;;;;;;6229414;23;20173;-93
2021/03/19 10:24:13;;;;;;;6.90;6.30;;;8.40;44.70;;;;;;6197989;23;20154;-94
2021/03/19 10:34:03;;;;;;;7.15;6.55;;;8.10;46.20;;;;;;6204724;23;20648;-92
2021/03/19 10:36:43;;;;;;;7.68;6.97;;;7.70;45.70;;;;;;6170893;23;20621;-92
2021/03/19 10:42:33;;;;;;;7.68;6.90;;;7.50;46.20;;;;;;6168879;23;20185;-92
2021/03/19 10:45:33;;;;;;;6.70;6.10;;;8.10;46.60;;;;;;6192685;23;20237;-94
2021/03/19 10:51:33;;;;;;;7.90;7.18;;;7.60;46.70;;;;;;6190947;23;20286;-94
2021/03/19 10:54:21;;;;;;;7.13;6.45;;;7.80;44.60;;;;;;6165051;23;20147;-95
2021/03/19 10:56:59;;;;;;;7.70;7.00;;;8.00;45.40;;;;;;6163630;23;20158;-93
2021/03/19 10:59:41;;;;;;;7.80;7.10;;;8.40;45.80;;;;;;6163992;23;20567;-93
2021/03/19 11:02:14;;;;;;;7.80;7.10;;;8.80;44.50;;;;;;6163374;23;20155;-90
2021/03/19 11:04:56;;;;;;;9.43;8.18;;;8.90;43.60;;;;;;6163992;23;20159;-93
2021/03/19 11:07:29;;;;;;;7.65;6.95;;;9.10;43.70;;;;;;6163137;23;20162;-93
2021/03/19 11:10:22;;;;;;;5.95;5.45;;;9.60;42.10;;;;;;6163137;23;20175;-93
2021/03/19 11:13:48;;;;;;;7.07;6.47;;;9.20;38.60;;;;;;6163119;23;20522;-92
2021/03/19 11:16:43;;;;;;;5.85;5.35;;;9.10;39.10;;;;;;6187670;23;20155;-92
2021/03/19 11:19:15;;;;;;;6.30;5.70;;;9.00;38.60;;;;;;6162955;23;20151;-94
2021/03/19 11:22:09;;;;;;;5.25;4.78;;;9.30;39.00;;;;;;6162950;23;20226;-94
2021/03/19 11:24:40;;;;;;;6.75;5.05;;;8.80;39.90;;;;;;6163095;23;20151;-92
2021/03/19 11:27:25;;;;;;;5.47;5.07;;;8.70;39.60;;;;;;6164549;23;20151;-92
2021/03/19 11:33:17;;;;;;;4.68;4.28;;;9.00;40.50;;;;;;6203960;23;20689;-93
2021/03/19 11:39:13;;;;;;;4.30;3.90;;;8.80;39.30;;;;;;6221287;23;20189;-94
2021/03/19 11:42:12;;;;;;;5.30;4.85;;;8.50;39.00;;;;;;6194485;23;20204;-90
2021/03/19 11:44:38;;;;;;;5.57;5.07;;;9.10;38.10;;;;;;6193160;23;20154;-92
2021/03/19 11:47:29;;;;;;;5.07;4.60;;;9.30;39.00;;;;;;6193134;23;20154;-94
2021/03/19 11:50:33;;;;;;;6.13;5.53;;;9.10;38.00;;;;;;6192137;23;20185;-92
2021/03/19 11:53:12;;;;;;;5.78;5.28;;;9.10;38.20;;;;;;6192796;23;20161;-92
2021/03/19 11:56:15;;;;;;;6.22;5.63;;;9.00;38.60;;;;;;6193517;23;20181;-91
2021/03/19 11:58:41;;;;;;;5.80;5.30;;;8.90;39.10;;;;;;6192776;23;20224;-89
2021/03/19 12:01:31;;;;;;;5.37;4.53;;;8.70;40.40;;;;;;6192638;23;20150;-90
2021/03/19 12:03:58;;;;;;;6.65;5.97;;;8.70;40.60;;;;;;6193357;23;20586;-91
2021/03/19 12:06:33;;;;;;;5.68;5.18;;;8.40;40.90;;;;;;6193592;23;20154;-93
2021/03/19 12:08:59;;;;;;;5.25;4.85;;;8.40;41.90;;;;;;6193975;23;20182;-91
2021/03/19 12:15:23;;;;;;;4.75;4.35;;;7.90;42.60;;;;;;6220331;23;20503;-90
2021/03/19 12:17:49;;;;;;;4.10;3.45;;;7.80;44.20;;;;;;6194496;23;20149;-91
2021/03/19 12:20:27;;;;;;;4.30;3.90;;;8.00;43.30;;;;;;6192794;23;20146;-91
2021/03/19 12:22:53;;;;;;;4.55;4.15;;;8.10;42.20;;;;;;6191925;23;20146;-91
2021/03/19 12:28:42;;;;;;;4.80;4.38;;;8.00;43.20;;;;;;6227598;23;20205;-94
2021/03/19 12:31:50;;;;;;;6.22;5.63;;;8.00;43.50;;;;;;6195119;23;20154;-91
2021/03/19 12:34:34;;;;;;;4.53;4.13;;;8.30;42.70;;;;;;6193023;23;20194;-92
2021/03/19 12:37:00;;;;;;;3.92;3.63;;;8.60;42.30;;;;;;6193126;23;20151;-91
2021/03/19 12:40:22;;;;;;;5.10;4.70;;;8.60;41.10;;;;;;6192671;23;20651;-90
2021/03/19 12:42:49;;;;;;;4.22;3.92;;;8.40;41.80;;;;;;6193912;23;20382;-91
2021/03/19 12:45:17;;;;;;;3.70;3.40;;;8.50;42.90;;;;;;6194995;23;20581;-91
2021/03/19 12:51:32;;;;;;;3.95;3.55;;;8.50;41.00;;;;;;6219646;23;20153;-92
2021/03/19 12:53:58;;;;;;;4.30;4.00;;;8.30;40.40;;;;;;6192914;23;20157;-91
2021/03/19 12:56:38;;;;;;;5.35;4.95;;;8.40;40.80;;;;;;6193251;23;20173;-91
2021/03/19 12:59:04;;;;;;;5.07;4.57;;;8.30;39.30;;;;;;6193651;23;20158;-91
2021/03/19 13:01:30;;;;;;;4.70;4.13;;;8.10;40.40;;;;;;6193152;23;20240;-91
2021/03/19 13:04:19;;;;;;;5.78;5.28;;;8.40;39.00;;;;;;6192896;23;20169;-91
2021/03/19 13:06:45;;;;;;;5.50;5.00;;;8.50;40.00;;;;;;6192337;23;20165;-92
2021/03/19 13:09:24;;;;;;;5.63;5.13;;;8.70;38.70;;;;;;6193387;23;20253;-92
2021/03/19 13:11:50;;;;;;;5.50;5.00;;;8.90;39.90;;;;;;6192886;23;20715;-92
2021/03/19 13:14:16;;;;;;;6.57;5.97;;;8.80;40.30;;;;;;6192743;23;20149;-92
2021/03/19 13:17:27;;;;;;;6.03;5.43;;;8.50;39.10;;;;;;6192688;23;20381;-92
2021/03/19 13:19:53;;;;;;;6.07;5.45;;;8.50;39.40;;;;;;6191826;23;20435;-92
2021/03/19 13:22:19;;;;;;;5.03;4.63;;;8.50;38.50;;;;;;6192434;23;20157;-93
2021/03/19 13:24:45;;;;;;;5.13;4.70;;;8.90;39.40;;;;;;6192884;23;20154;-89
2021/03/19 13:27:15;;;;;;;6.10;5.60;;;8.50;37.30;;;;;;6192752;23;20374;-90
2021/03/19 13:29:41;;;;;;;5.20;4.75;;;8.70;37.40;;;;;;6192649;23;20265;-90
2021/03/19 13:32:06;;;;;;;7.80;7.00;;;8.70;38.20;;;;;;6193517;23;20155;-91
2021/03/19 13:34:34;;;;;;;6.77;6.17;;;8.40;37.90;;;;;;6192907;23;20261;-91
2021/03/19 13:37:00;;;;;;;7.07;6.38;;;8.30;39.70;;;;;;6192137;23;20867;-92
2021/03/19 13:39:56;;;;;;;8.07;7.28;;;8.60;40.10;;;;;;6191958;23;20577;-91
2021/03/19 13:42:22;;;;;;;7.53;6.53;;;8.60;39.00;;;;;;6191427;23;20158;-91
2021/03/19 13:44:48;;;;;;;7.87;6.87;;;8.90;38.30;;;;;;6192392;23;20208;-94
2021/03/19 13:50:36;;;;;;;7.57;6.80;;;8.10;38.10;;;;;;6219342;23;20376;-92
2021/03/19 13:56:25;;;;;;;7.95;7.20;;;8.30;38.70;;;;;;6221417;23;20345;-92
2021/03/19 13:59:46;;;;;;;6.90;6.20;;;8.40;39.30;;;;;;6197922;23;20233;-93
2021/03/19 14:02:15;;;;;;;9.18;7.40;;;8.50;39.50;;;;;;6195365;23;20522;-91
2021/03/19 14:04:41;;;;;;;7.55;6.60;;;8.20;38.90;;;;;;6195875;23;20233;-93
2021/03/19 14:07:13;;;;;;;10.00;7.55;;;8.40;39.30;;;;;;6195897;23;20208;-93
2021/03/19 14:09:39;;;;;;;10.32;8.85;;;8.40;40.10;;;;;;6194954;23;20178;-93
2021/03/19 14:12:18;;;;;;;10.10;8.57;;;8.20;39.30;;;;;;6195184;23;20158;-91
2021/03/19 14:14:43;;;;;;;12.48;9.95;;;8.40;40.90;;;;;;6195623;23;20389;-92
2021/03/19 14:17:28;;;;;;;12.77;10.80;;;7.90;41.50;;;;;;6195924;23;20224;-93
2021/03/19 14:19:54;;;;;;;12.63;10.55;;;8.00;42.70;;;;;;6195393;23;20389;-93
2021/03/19 14:22:20;;;;;;;10.20;9.27;;;7.70;43.60;;;;;;6195495;23;20237;-93
2021/03/19 14:25:06;;;;;;;15.03;11.80;;;7.60;42.90;;;;;;6199639;23;20404;-93
2021/03/19 14:27:34;;;;;;;13.70;10.93;;;8.10;42.40;;;;;;6198913;23;20395;-83
2021/03/19 14:30:14;;;;;;;12.02;10.82;;;7.80;43.30;;;;;;6195557;23;20202;-93
2021/03/19 14:37:00;;;;;;;12.27;9.60;;;7.60;42.10;;;;;;6223523;23;20184;-93
2021/03/19 14:39:31;;;;;;;10.40;8.93;;;7.80;42.90;;;;;;6194863;23;20163;-93
2021/03/19 14:42:01;;;;;;;10.60;9.27;;;7.50;42.00;;;;;;6195634;23;20174;-93
2021/03/19 14:44:27;;;;;;;12.00;9.82;;;7.70;41.90;;;;;;6196127;23;20151;-93
2021/03/19 14:47:22;;;;;;;12.35;10.25;;;7.60;42.00;;;;;;6196784;23;20232;-93
2021/03/19 14:49:48;;;;;;;11.60;9.18;;;7.80;42.50;;;;;;6201600;23;20186;-94
2021/03/19 14:52:14;;;;;;;14.07;9.80;;;7.80;42.40;;;;;;6197907;23;20158;-93
2021/03/19 14:54:59;;;;;;;12.50;10.77;;;7.80;41.30;;;;;;6195127;23;20714;-95
2021/03/19 14:57:25;;;;;;;12.30;10.75;;;7.70;41.10;;;;;;6195715;23;20169;-92
2021/03/19 15:00:00;;;;;;;16.23;9.90;;;7.80;40.70;;;;;;6195648;23;20146;-93
2021/03/19 15:05:48;;;;;;;11.88;9.60;;;7.70;41.50;;;;;;6222734;23;20452;-93
2021/03/19 15:11:41;;;;;;;12.75;10.30;;;7.70;40.90;;;;;;6221360;23;20146;-92
2021/03/19 15:17:43;;;;;;;12.40;9.82;;;7.90;41.90;;;;;;6220100;23;20142;-92
2021/03/19 15:20:12;;;;;;;13.05;10.52;;;7.80;40.60;;;;;;6193826;23;20155;-92
2021/03/19 15:22:38;;;;;;;13.25;10.40;;;7.70;41.40;;;;;;6192589;23;20167;-93
2021/03/19 15:25:05;;;;;;;13.17;9.30;;;7.80;41.60;;;;;;6192074;23;20252;-92
2021/03/19 15:27:31;;;;;;;7.88;6.72;;;7.50;41.70;;;;;;6191907;23;20868;-92
2021/03/19 15:29:57;;;;;;;10.05;8.45;;;7.80;40.40;;;;;;6192121;23;20182;-91
2021/03/19 15:32:39;;;;;;;10.15;7.85;;;7.60;40.10;;;;;;6192297;23;20143;-92
2021/03/19 15:35:06;;;;;;;8.35;6.85;;;7.40;40.00;;;;;;6218378;23;20156;-92
2021/03/19 15:37:39;;;;;;;8.70;7.25;;;7.50;40.90;;;;;;6220384;23;20229;-94
2021/03/19 15:40:08;;;;;;;8.23;7.50;;;7.80;40.90;;;;;;6194276;23;20161;-93
2021/03/19 15:42:53;;;;;;;11.18;9.52;;;7.50;41.50;;;;;;6193879;23;20146;-94
2021/03/19 15:45:20;;;;;;;11.70;10.27;;;6.90;42.50;;;;;;6192694;23;20386;-92
2021/03/19 15:47:48;;;;;;;12.52;10.07;;;6.90;43.70;;;;;;6192807;23;20382;-92
2021/03/19 15:53:38;;;;;;;9.98;8.77;;;7.10;48.10;;;;;;6219711;23;20165;-91
2021/03/19 15:56:07;;;;;;;10.73;8.65;;;6.40;50.20;;;;;;6193503;23;20161;-93
2021/03/19 15:58:34;;;;;;;10.52;8.57;;;6.40;49.70;;;;;;6218849;23;20139;-93
2021/03/19 16:01:00;;;;;;;9.10;8.10;;;6.00;50.80;;;;;;6219011;23;20142;-91
2021/03/19 16:03:26;;;;;;;11.20;8.57;;;5.90;51.60;;;;;;6217872;23;20150;-93
2021/03/19 16:05:55;;;;;;;8.40;7.50;;;5.70;52.50;;;;;;6193085;23;20142;-93
2021/03/19 16:08:27;;;;;;;8.63;7.72;;;6.00;51.40;;;;;;6193671;23;20169;-93
2021/03/19 16:11:48;;;;;;;8.85;7.95;;;5.80;51.80;;;;;;6219190;23;20143;-94
2021/03/19 16:14:14;;;;;;;9.35;8.15;;;5.70;52.00;;;;;;6193631;23;20586;-91
2021/03/19 16:16:57;;;;;;;11.80;7.90;;;5.60;52.20;;;;;;6218719;23;20147;-93
2021/03/19 16:19:24;;;;;;;10.82;9.52;;;5.70;51.20;;;;;;6193683;23;20913;-92
2021/03/19 16:22:25;;;;;;;7.43;6.70;;;5.70;50.70;;;;;;6193663;23;20146;-92
2021/03/19 16:24:51;;;;;;;9.02;7.40;;;5.90;51.00;;;;;;6218895;23;20151;-93
2021/03/19 16:27:26;;;;;;;8.50;7.03;;;6.30;50.20;;;;;;6196744;23;20170;-92
2021/03/19 16:29:52;;;;;;;9.10;7.72;;;6.50;49.40;;;;;;6194267;23;20178;-92
2021/03/19 16:32:37;;;;;;;8.90;7.38;;;7.00;50.10;;;;;;6193621;23;20166;-91
2021/03/19 16:35:03;;;;;;;9.07;7.60;;;6.60;49.50;;;;;;6193853;23;20617;-92
2021/03/19 16:37:29;;;;;;;10.32;8.70;;;6.80;49.20;;;;;;6193313;23;20155;-91
2021/03/19 16:39:55;;;;;;;10.90;9.40;;;7.00;48.30;;;;;;6192753;23;20816;-91
2021/03/19 16:42:40;;;;;;;9.60;8.18;;;7.10;48.10;;;;;;6192337;23;20382;-90
2021/03/19 16:45:06;;;;;;;9.98;8.98;;;7.30;47.70;;;;;;6194158;23;20611;-91
2021/03/19 16:47:34;;;;;;;9.45;8.40;;;7.40;47.30;;;;;;6193586;23;20194;-91
2021/03/19 16:50:00;;;;;;;8.63;7.72;;;7.10;46.10;;;;;;6192611;23;20238;-92
2021/03/19 16:53:02;;;;;;;8.27;7.20;;;8.20;46.20;;;;;;6194043;23;20197;-92
2021/03/19 16:55:37;;;;;;;9.30;8.25;;;7.80;46.10;;;;;;6126362;23;20214;-91
2021/03/19 16:58:05;;;;;;;8.82;7.70;;;7.80;45.10;;;;;;6143734;23;20154;-90
2021/03/19 17:00:36;;;;;;;9.50;8.57;;;7.60;45.40;;;;;;6191025;23;20150;-91
2021/03/19 17:03:05;;;;;;;8.38;7.68;;;7.60;45.70;;;;;;6190642;23;20154;-91
2021/03/19 17:05:32;;;;;;;8.07;7.28;;;7.70;46.20;;;;;;6191847;23;20604;-90
2021/03/19 17:08:04;;;;;;;8.40;7.00;;;7.60;45.50;;;;;;6191361;23;20475;-91
2021/03/19 17:10:32;;;;;;;10.35;8.10;;;7.70;45.40;;;;;;6190990;23;20257;-91
2021/03/19 17:13:06;;;;;;;7.25;6.55;;;7.70;45.90;;;;;;6191407;23;20150;-91
2021/03/19 17:15:34;;;;;;;8.15;7.35;;;7.60;45.20;;;;;;6191261;23;20233;-91
2021/03/19 17:18:02;;;;;;;10.10;7.75;;;7.60;46.00;;;;;;6193333;23;20158;-90
2021/03/19 17:20:31;;;;;;;7.90;6.78;;;7.90;46.40;;;;;;6194851;23;20155;-91
2021/03/19 17:23:06;;;;;;;8.63;7.82;;;7.40;46.00;;;;;;6192728;23;20146;-88
2021/03/19 17:25:40;;;;;;;11.35;6.80;;;7.60;46.10;;;;;;6193686;23;20150;-89
2021/03/19 17:28:38;;;;;;;9.10;7.45;;;7.50;46.00;;;;;;6192922;23;20523;-89
2021/03/19 17:31:05;;;;;;;11.65;10.27;;;7.70;46.40;;;;;;6192853;23;20582;-90
2021/03/19 17:33:35;;;;;;;17.98;16.27;;;7.70;46.50;;;;;;6192183;23;20190;-90
2021/03/19 17:36:02;;;;;;;17.20;15.50;;;7.50;46.80;;;;;;6205785;23;20157;-94
2021/03/19 18:04:21;;;;;;;11.70;10.50;;;6.90;48.50;;;;;;6140094;23;20139;-94
2021/03/19 18:10:12;;;;;;;9.93;8.93;;;7.20;49.00;;;;;;6140500;23;20497;-91
2021/03/19 18:16:24;;;;;;;8.25;7.43;;;6.90;48.40;;;;;;6215431;23;20157;-94
2021/03/19 18:22:16;;;;;;;8.35;7.35;;;6.60;48.50;;;;;;6224754;23;20118;-93
2021/03/19 18:28:06;;;;;;;8.50;7.70;;;6.70;48.30;;;;;;6238184;23;20187;-94
2021/03/19 18:37:39;;;;;;;8.88;8.00;;;7.10;47.80;;;;;;6221462;23;20134;-93
2021/03/19 18:43:28;;;;;;;8.07;7.30;;;7.20;47.60;;;;;;6230957;23;20138;-94
2021/03/19 18:49:18;;;;;;;9.43;8.52;;;6.60;48.30;;;;;;6230310;23;20185;-95
2021/03/19 18:55:09;;;;;;;12.45;9.65;;;6.70;48.70;;;;;;6236723;23;20142;-94
2021/03/19 19:00:57;;;;;;;10.25;8.60;;;6.40;48.60;;;;;;6229874;23;20145;-92
2021/03/19 19:06:53;;;;;;;11.00;9.25;;;6.40;48.10;;;;;;6233857;23;20137;-95
2021/03/19 19:12:42;;;;;;;9.85;8.85;;;6.00;47.70;;;;;;6236671;23;20138;-96
2021/03/19 19:18:30;;;;;;;8.57;7.68;;;6.00;46.90;;;;;;6226370;23;20153;-91
2021/03/19 19:24:20;;;;;;;8.50;7.55;;;5.70;46.90;;;;;;6226249;23;20145;-95
2021/03/19 19:30:12;;;;;;;9.75;7.97;;;5.40;47.00;;;;;;6232315;23;20196;-96
